createdAt,value
2023-04-22T00:02:23.001Z,80.64
2023-04-22T00:04:49.429Z,82.77
2023-04-22T00:07:15.833Z,83.25
2023-04-22T00:09:42.196Z,82.18
2023-04-22T00:12:08.504Z,81.39
2023-04-22T00:14:34.801Z,80.01
2023-04-22T00:17:01.165Z,79.83
2023-04-22T00:19:27.461Z,80.19
2023-04-22T00:21:53.759Z,79.73
2023-04-22T00:24:20.070Z,80.06
2023-04-22T00:26:46.388Z,80.59
2023-04-22T00:29:12.681Z,81.07
2023-04-22T00:31:39.003Z,81.80
2023-04-22T00:34:05.324Z,81.13
2023-04-22T00:36:31.634Z,82.31
2023-04-22T00:38:57.977Z,83.45
2023-04-22T00:41:24.289Z,81.98
2023-04-22T00:43:50.621Z,81.04
2023-04-22T00:46:17.038Z,81.63
2023-04-22T00:48:43.395Z,81.37
2023-04-22T00:51:09.696Z,81.23
2023-04-22T00:53:36.014Z,82.43
2023-04-22T00:56:02.289Z,83.44
2023-04-22T00:58:28.582Z,82.30
2023-04-22T01:00:54.896Z,80.40
2023-04-22T01:03:21.358Z,81.66
2023-04-22T01:05:47.771Z,82.77
2023-04-22T01:08:14.091Z,82.36
2023-04-22T01:10:40.378Z,81.75
2023-04-22T01:13:06.666Z,80.11
2023-04-22T01:15:32.990Z,81.03
2023-04-22T01:17:59.376Z,82.80
2023-04-22T01:20:25.734Z,83.39
2023-04-22T01:22:52.097Z,81.98
2023-04-22T01:25:18.388Z,81.91
2023-04-22T01:27:44.693Z,83.63
2023-04-22T01:30:11.004Z,83.50
2023-04-22T01:32:37.329Z,80.77
2023-04-22T01:35:03.643Z,81.84
2023-04-22T01:37:29.963Z,84.12
2023-04-22T01:39:56.257Z,83.22
2023-04-22T01:42:22.537Z,81.52
2023-04-22T01:44:48.896Z,80.19
2023-04-22T01:47:15.180Z,81.84
2023-04-22T01:49:41.950Z,80.74
2023-04-22T01:52:08.702Z,81.42
2023-04-22T01:54:35.006Z,82.81
2023-04-22T01:57:01.301Z,84.43
2023-04-22T01:59:27.616Z,82.32
2023-04-22T02:01:53.993Z,82.49
2023-04-22T02:04:20.299Z,81.39
2023-04-22T02:06:46.620Z,80.89
2023-04-22T02:09:12.909Z,79.61
2023-04-22T02:11:39.224Z,79.92
2023-04-22T02:14:05.565Z,80.27
2023-04-22T02:16:31.959Z,80.22
2023-04-22T02:18:58.313Z,80.98
2023-04-22T02:21:24.632Z,80.06
2023-04-22T02:23:50.936Z,80.24
2023-04-22T02:26:17.229Z,79.97
2023-04-22T02:28:43.578Z,81.58
2023-04-22T02:31:09.917Z,82.74
2023-04-22T02:33:36.216Z,82.19
2023-04-22T02:36:02.529Z,81.18
2023-04-22T02:38:28.920Z,82.64
2023-04-22T02:40:55.236Z,81.69
2023-04-22T02:43:21.566Z,81.76
2023-04-22T02:45:47.880Z,80.68
2023-04-22T02:48:14.193Z,80.76
2023-04-22T02:50:40.521Z,80.85
2023-04-22T02:53:06.831Z,83.03
2023-04-22T02:55:33.228Z,82.91
2023-04-22T02:57:59.561Z,84.67
2023-04-22T03:00:25.863Z,84.66
2023-04-22T03:02:52.416Z,84.56
2023-04-22T03:05:18.876Z,83.76
2023-04-22T03:07:45.176Z,84.59
2023-04-22T03:10:11.493Z,85.19
2023-04-22T03:12:37.805Z,83.50
2023-04-22T03:15:04.093Z,83.22
2023-04-22T03:17:30.443Z,82.73
2023-04-22T03:19:56.778Z,82.13
2023-04-22T03:22:23.104Z,82.46
2023-04-22T03:24:49.440Z,82.90
2023-04-22T03:27:15.761Z,81.87
2023-04-22T03:29:42.271Z,81.81
2023-04-22T03:32:08.890Z,81.92
2023-04-22T03:34:37.048Z,82.15
2023-04-22T03:37:03.729Z,81.32
2023-04-22T03:39:30.034Z,81.35
2023-04-22T03:41:56.369Z,82.03
2023-04-22T03:44:22.686Z,82.69
2023-04-22T03:46:48.994Z,82.94
2023-04-22T03:49:15.810Z,85.07
2023-04-22T03:51:42.115Z,84.14
2023-04-22T03:54:08.415Z,82.83
2023-04-22T03:56:34.737Z,82.25
2023-04-22T03:59:01.031Z,83.14
2023-04-22T04:01:27.339Z,81.89
2023-04-22T04:03:53.794Z,82.49
2023-04-22T04:06:20.260Z,83.59
2023-04-22T04:08:46.723Z,83.14
2023-04-22T04:11:13.045Z,82.43
2023-04-22T04:13:39.351Z,82.98
2023-04-22T04:16:05.728Z,83.42
2023-04-22T04:18:32.106Z,83.84
2023-04-22T04:20:58.397Z,85.18
2023-04-22T04:23:24.687Z,83.52
2023-04-22T04:25:51.029Z,85.95
2023-04-22T04:28:17.335Z,85.95
2023-04-22T04:30:43.658Z,87.53
2023-04-22T04:33:10.083Z,88.31
2023-04-22T04:35:36.463Z,89.43
2023-04-22T04:38:02.774Z,87.37
2023-04-22T04:40:29.148Z,86.33
2023-04-22T04:42:55.454Z,86.42
2023-04-22T04:45:21.761Z,88.08
2023-04-22T04:47:48.105Z,90.33
2023-04-22T04:50:14.418Z,90.26
2023-04-22T04:52:40.719Z,91.67
2023-04-22T04:55:07.065Z,90.66
2023-04-22T04:57:33.371Z,89.41
2023-04-22T04:59:59.675Z,88.66
2023-04-22T05:02:26.329Z,90.11
2023-04-22T05:04:52.837Z,88.48
2023-04-22T05:07:19.166Z,89.08
2023-04-22T05:09:45.499Z,90.24
2023-04-22T05:12:11.831Z,92.34
2023-04-22T05:14:38.133Z,91.04
2023-04-22T05:17:04.475Z,91.49
2023-04-22T05:19:30.781Z,92.57
2023-04-22T05:21:57.096Z,92.92
2023-04-22T05:24:23.418Z,93.15
2023-04-22T05:26:49.731Z,91.96
2023-04-22T05:29:16.049Z,88.69
2023-04-22T05:31:43.618Z,88.19
2023-04-22T05:34:09.942Z,89.55
2023-04-22T05:36:36.262Z,88.34
2023-04-22T05:39:02.590Z,87.40
2023-04-22T05:41:28.884Z,88.53
2023-04-22T05:43:55.179Z,89.51
2023-04-22T05:46:21.571Z,91.22
2023-04-22T05:48:47.889Z,90.18
2023-04-22T05:51:14.183Z,91.83
2023-04-22T05:53:40.503Z,91.88
2023-04-22T05:56:06.786Z,94.31
2023-04-22T05:58:33.160Z,93.67
2023-04-22T06:00:59.480Z,95.04
2023-04-22T06:03:25.975Z,94.57
2023-04-22T06:05:52.432Z,92.44
2023-04-22T06:08:18.782Z,91.99
2023-04-22T06:10:45.095Z,92.77
2023-04-22T06:13:11.417Z,92.08
2023-04-22T06:15:37.811Z,92.28
2023-04-22T06:18:04.214Z,93.76
2023-04-22T06:20:30.524Z,93.28
2023-04-22T06:22:56.861Z,92.98
2023-04-22T06:25:23.177Z,93.40
2023-04-22T06:27:49.484Z,92.40
2023-04-22T06:30:15.826Z,92.02
2023-04-22T06:32:42.157Z,92.40
2023-04-22T06:35:08.478Z,93.13
2023-04-22T06:37:34.801Z,92.04
2023-04-22T06:40:01.112Z,94.56
2023-04-22T06:42:27.411Z,92.09
2023-04-22T06:44:53.732Z,92.85
2023-04-22T06:47:20.059Z,93.97
2023-04-22T06:49:46.405Z,93.90
2023-04-22T06:52:12.791Z,93.12
2023-04-22T06:54:39.100Z,91.94
2023-04-22T06:57:05.415Z,92.62
2023-04-22T06:59:31.753Z,91.29
2023-04-22T07:01:58.083Z,90.18
2023-04-22T07:04:24.435Z,90.77
2023-04-22T07:06:50.797Z,89.80
2023-04-22T07:09:17.119Z,90.94
2023-04-22T07:11:43.439Z,91.75
2023-04-22T07:14:09.772Z,92.47
2023-04-22T07:16:36.082Z,91.82
2023-04-22T07:19:02.402Z,91.73
2023-04-22T07:21:28.741Z,90.64
2023-04-22T07:23:55.126Z,91.15
2023-04-22T07:26:21.438Z,91.67
2023-04-22T07:28:47.751Z,90.05
2023-04-22T07:31:14.053Z,89.34
2023-04-22T07:33:40.360Z,89.12
2023-04-22T07:36:06.697Z,89.28
2023-04-22T07:38:33.013Z,89.83
2023-04-22T07:40:59.327Z,89.94
2023-04-22T07:43:25.652Z,90.10
2023-04-22T07:45:51.993Z,89.44
2023-04-22T07:48:18.351Z,88.98
2023-04-22T07:50:44.674Z,87.48
2023-04-22T07:53:10.983Z,88.57
2023-04-22T07:55:37.282Z,88.30
2023-04-22T07:58:03.657Z,88.64
2023-04-22T08:00:30.029Z,88.95
2023-04-22T08:02:56.533Z,89.83
2023-04-22T08:05:23.037Z,89.61
2023-04-22T08:07:49.399Z,88.86
2023-04-22T08:10:15.718Z,88.61
2023-04-22T08:12:42.077Z,89.32
2023-04-22T08:15:08.427Z,88.60
2023-04-22T08:17:34.873Z,87.18
2023-04-22T08:20:01.204Z,86.98
2023-04-22T08:22:27.552Z,86.51
2023-04-22T08:24:53.866Z,85.21
2023-04-22T08:27:20.193Z,84.27
2023-04-22T08:29:46.496Z,85.03
2023-04-22T08:32:12.802Z,85.02
2023-04-22T08:34:39.126Z,83.86
2023-04-22T08:37:05.441Z,84.23
2023-04-22T08:39:31.754Z,86.27
2023-04-22T08:41:58.089Z,85.49
2023-04-22T08:44:24.400Z,84.48
2023-04-22T08:46:50.724Z,84.18
2023-04-22T08:49:17.050Z,80.83
2023-04-22T08:51:43.367Z,80.32
2023-04-22T08:54:09.680Z,79.21
2023-04-22T08:56:36.043Z,80.24
2023-04-22T08:59:02.363Z,79.17
2023-04-22T09:01:28.677Z,79.41
2023-04-22T09:03:55.205Z,80.59
2023-04-22T09:06:21.580Z,79.65
2023-04-22T09:08:47.883Z,78.56
2023-04-22T09:11:14.219Z,80.35
2023-04-22T09:13:40.517Z,80.83
2023-04-22T09:16:06.853Z,80.75
2023-04-22T09:18:33.228Z,81.59
2023-04-22T09:20:59.579Z,80.94
2023-04-22T09:23:25.891Z,82.17
2023-04-22T09:25:52.211Z,81.28
2023-04-22T09:28:18.506Z,80.42
2023-04-22T09:30:44.819Z,79.38
2023-04-22T09:33:11.173Z,79.09
2023-04-22T09:35:37.504Z,81.33
2023-04-22T09:38:03.850Z,80.82
2023-04-22T09:40:30.173Z,82.26
2023-04-22T09:42:56.492Z,83.05
2023-04-22T09:45:22.802Z,83.14
2023-04-22T09:47:49.159Z,82.45
2023-04-22T09:50:15.523Z,83.28
2023-04-22T09:52:41.825Z,81.76
2023-04-22T09:55:08.148Z,81.33
2023-04-22T09:57:34.459Z,80.23
2023-04-22T10:00:00.757Z,81.88
2023-04-22T10:02:27.156Z,80.85
2023-04-22T10:04:53.521Z,79.81
2023-04-22T10:07:19.819Z,82.26
2023-04-22T10:09:46.201Z,83.91
2023-04-22T10:12:13.249Z,82.37
2023-04-22T10:14:40.311Z,81.47
2023-04-22T10:17:06.713Z,81.37
2023-04-22T10:19:33.094Z,80.11
2023-04-22T10:21:59.427Z,79.19
2023-04-22T10:24:25.746Z,78.29
2023-04-22T10:26:52.036Z,76.70
2023-04-22T10:29:18.354Z,74.86
2023-04-22T10:31:44.679Z,77.48
2023-04-22T10:34:10.991Z,78.63
2023-04-22T10:36:37.292Z,79.14
2023-04-22T10:39:03.812Z,77.62
2023-04-22T10:41:30.135Z,76.97
2023-04-22T10:43:56.455Z,73.66
2023-04-22T10:46:22.820Z,73.86
2023-04-22T10:48:49.182Z,74.60
2023-04-22T10:51:15.494Z,74.71
2023-04-22T10:53:41.803Z,73.39
2023-04-22T10:56:08.109Z,73.95
2023-04-22T10:58:34.410Z,73.47
2023-04-22T11:01:00.726Z,74.51
2023-04-22T11:03:27.198Z,74.16
2023-04-22T11:05:53.654Z,73.11
2023-04-22T11:08:19.991Z,72.93
2023-04-22T11:10:46.298Z,72.02
2023-04-22T11:13:12.598Z,73.48
2023-04-22T11:15:38.975Z,71.06
2023-04-22T11:18:05.396Z,72.40
2023-04-22T11:20:31.709Z,72.76
2023-04-22T11:22:58.046Z,72.45
2023-04-22T11:25:24.358Z,73.69
2023-04-22T11:27:50.665Z,74.34
2023-04-22T11:30:16.998Z,72.48
2023-04-22T11:32:43.381Z,73.26
2023-04-22T11:35:09.711Z,73.61
2023-04-22T11:37:36.028Z,72.35
2023-04-22T11:40:21.527Z,72.53
2023-04-22T11:42:48.644Z,73.21
2023-04-22T11:45:14.945Z,73.30
2023-04-22T11:47:41.304Z,74.03
2023-04-22T11:50:07.712Z,73.56
2023-04-22T11:52:34.041Z,73.58
2023-04-22T11:55:00.358Z,73.36
2023-04-22T11:57:26.674Z,73.70
2023-04-22T11:59:52.975Z,74.22
2023-04-22T12:02:19.422Z,74.49
2023-04-22T12:04:45.865Z,73.29
2023-04-22T12:07:12.182Z,72.92
2023-04-22T12:09:38.679Z,73.50
2023-04-22T12:12:05.187Z,73.85
2023-04-22T12:14:31.495Z,73.54
2023-04-22T12:16:57.828Z,74.58
2023-04-22T12:19:24.217Z,74.10
2023-04-22T12:21:50.526Z,74.96
2023-04-22T12:24:16.845Z,75.15
2023-04-22T12:26:43.189Z,76.14
2023-04-22T12:29:09.497Z,76.52
2023-04-22T12:31:35.814Z,75.95
2023-04-22T12:34:02.187Z,75.85
2023-04-22T12:36:28.553Z,76.27
2023-04-22T12:38:54.860Z,76.39
2023-04-22T12:41:21.179Z,77.70
2023-04-22T12:43:47.492Z,78.89
2023-04-22T12:46:13.822Z,78.25
2023-04-22T12:48:40.183Z,79.55
2023-04-22T12:51:06.517Z,80.02
2023-04-22T12:53:32.882Z,78.78
2023-04-22T12:55:59.231Z,79.39
2023-04-22T12:58:25.692Z,80.53
2023-04-22T13:00:52.046Z,79.49
2023-04-22T13:03:18.706Z,78.47
2023-04-22T13:05:45.131Z,78.41
2023-04-22T13:08:11.518Z,76.37
2023-04-22T13:10:37.849Z,74.37
2023-04-22T13:13:16.760Z,74.25
2023-04-22T13:15:44.483Z,73.87
2023-04-22T13:18:10.830Z,76.59
2023-04-22T13:20:37.200Z,73.90
2023-04-22T13:23:03.583Z,73.54
2023-04-22T13:25:29.927Z,73.15
2023-04-22T13:27:56.245Z,70.88
2023-04-22T13:30:22.585Z,71.43
2023-04-22T13:32:48.933Z,71.63
2023-04-22T13:35:15.302Z,69.04
2023-04-22T13:37:41.644Z,70.77
2023-04-22T13:40:07.988Z,68.53
2023-04-22T13:42:34.301Z,69.30
2023-04-22T13:45:00.638Z,69.19
2023-04-22T13:47:26.996Z,67.74
2023-04-22T13:49:53.310Z,69.10
2023-04-22T13:52:19.636Z,70.33
2023-04-22T13:54:45.929Z,69.56
2023-04-22T13:57:12.241Z,69.48
2023-04-22T13:59:38.870Z,70.40
2023-04-22T14:02:05.335Z,70.96
2023-04-22T14:04:31.701Z,71.15
2023-04-22T14:06:58.069Z,71.71
2023-04-22T14:09:24.377Z,72.14
2023-04-22T14:11:50.679Z,72.46
2023-04-22T14:14:17.018Z,72.53
2023-04-22T14:16:43.373Z,73.28
2023-04-22T14:19:09.702Z,73.35
2023-04-22T14:21:36.033Z,72.00
2023-04-22T14:24:02.382Z,72.45
2023-04-22T14:26:28.708Z,72.66
2023-04-22T14:28:55.075Z,72.63
2023-04-22T14:31:21.466Z,73.65
2023-04-22T14:33:47.973Z,73.90
2023-04-22T14:36:14.290Z,73.27
2023-04-22T14:38:40.589Z,72.81
2023-04-22T14:41:06.899Z,73.14
2023-04-22T14:43:33.433Z,71.70
2023-04-22T14:45:59.764Z,72.43
2023-04-22T14:48:26.077Z,70.47
2023-04-22T14:50:52.405Z,71.48
2023-04-22T14:53:18.726Z,72.26
2023-04-22T14:55:45.029Z,71.20
2023-04-22T14:58:11.361Z,72.07
2023-04-22T15:00:37.652Z,72.10
2023-04-22T15:03:04.146Z,73.45
2023-04-22T15:05:30.599Z,72.84
2023-04-22T15:07:56.902Z,72.73
2023-04-22T15:10:23.204Z,72.69
2023-04-22T15:12:49.517Z,71.86
2023-04-22T15:15:16.046Z,73.28
2023-04-22T15:17:42.575Z,73.30
2023-04-22T15:20:09.441Z,71.59
2023-04-22T15:22:35.827Z,72.70
2023-04-22T15:25:02.135Z,73.03
2023-04-22T15:27:28.459Z,72.07
2023-04-22T15:29:54.760Z,72.58
2023-04-22T15:32:21.065Z,71.41
2023-04-22T15:34:47.432Z,71.07
2023-04-22T15:37:13.747Z,71.71
2023-04-22T15:39:40.249Z,71.06
2023-04-22T15:42:06.845Z,69.89
2023-04-22T15:44:33.139Z,70.79
2023-04-22T15:46:59.598Z,69.68
2023-04-22T15:49:25.981Z,70.47
2023-04-22T15:51:52.289Z,70.98
2023-04-22T15:54:18.596Z,70.68
2023-04-22T15:56:44.963Z,71.70
2023-04-22T15:59:11.379Z,69.23
2023-04-22T16:01:39.102Z,70.01
2023-04-22T16:04:06.767Z,71.40
2023-04-22T16:06:33.279Z,71.10
2023-04-22T16:08:59.585Z,71.38
2023-04-22T16:11:25.905Z,71.15
2023-04-22T16:13:52.206Z,72.03
2023-04-22T16:16:18.519Z,70.96
2023-04-22T16:18:44.858Z,71.94
2023-04-22T16:21:11.158Z,72.62
2023-04-22T16:23:37.471Z,71.41
2023-04-22T16:26:03.818Z,71.99
2023-04-22T16:28:30.122Z,73.06
2023-04-22T16:30:56.453Z,71.37
2023-04-22T16:33:22.806Z,71.83
2023-04-22T16:35:49.122Z,70.99
2023-04-22T16:38:15.421Z,70.96
2023-04-22T16:40:41.792Z,71.06
2023-04-22T16:43:08.092Z,70.38
2023-04-22T16:45:34.391Z,70.96
2023-04-22T16:48:00.757Z,69.70
2023-04-22T16:50:27.076Z,70.92
2023-04-22T16:52:53.392Z,71.35
2023-04-22T16:55:19.712Z,71.47
2023-04-22T16:57:46.021Z,72.15
2023-04-22T17:00:12.337Z,72.27
2023-04-22T17:02:38.850Z,71.81
2023-04-22T17:05:05.243Z,71.47
2023-04-22T17:07:31.548Z,71.94
2023-04-22T17:09:57.935Z,71.12
2023-04-22T17:12:24.269Z,71.82
2023-04-22T17:14:50.575Z,70.90
2023-04-22T17:17:16.886Z,70.86
2023-04-22T17:19:43.601Z,70.10
2023-04-22T17:22:10.264Z,70.60
2023-04-22T17:24:36.591Z,70.07
2023-04-22T17:27:02.909Z,70.61
2023-04-22T17:29:29.243Z,70.74
2023-04-22T17:31:55.696Z,69.61
2023-04-22T17:34:22.041Z,69.96
2023-04-22T17:36:48.337Z,70.60
2023-04-22T17:39:14.656Z,69.27
2023-04-22T17:41:40.963Z,70.58
2023-04-22T17:44:07.274Z,70.41
2023-04-22T17:46:33.683Z,70.87
2023-04-22T17:49:00.018Z,70.76
2023-04-22T17:51:26.326Z,70.15
2023-04-22T17:53:52.650Z,70.13
2023-04-22T17:56:18.950Z,70.44
2023-04-22T17:58:45.262Z,70.44
2023-04-22T18:01:11.608Z,69.72
2023-04-22T18:03:38.128Z,71.49
2023-04-22T18:06:04.676Z,71.54
2023-04-22T18:08:30.982Z,71.29
2023-04-22T18:10:57.275Z,72.31
2023-04-22T18:13:23.577Z,73.25
2023-04-22T18:15:49.906Z,72.27
2023-04-22T18:18:16.215Z,73.39
2023-04-22T18:20:42.523Z,73.44
2023-04-22T18:23:08.848Z,72.48
2023-04-22T18:25:35.153Z,74.71
2023-04-22T18:28:01.457Z,74.77
2023-04-22T18:30:27.769Z,74.96
2023-04-22T18:32:54.109Z,74.47
2023-04-22T18:35:20.411Z,73.66
2023-04-22T18:37:46.726Z,73.76
2023-04-22T18:40:13.052Z,74.15
2023-04-22T18:42:39.360Z,75.12
2023-04-22T18:45:05.674Z,76.30
2023-04-22T18:47:32.008Z,75.24
2023-04-22T18:49:58.301Z,74.59
2023-04-22T18:52:24.667Z,73.91
2023-04-22T18:54:50.981Z,74.54
2023-04-22T18:57:17.283Z,73.36
2023-04-22T18:59:43.622Z,74.13
2023-04-22T19:02:09.967Z,72.99
2023-04-22T19:04:36.300Z,73.99
2023-04-22T19:07:02.675Z,73.96
2023-04-22T19:09:28.990Z,76.53
2023-04-22T19:11:55.304Z,77.47
2023-04-22T19:14:21.646Z,76.14
2023-04-22T19:16:47.968Z,76.32
2023-04-22T19:19:14.293Z,76.62
2023-04-22T19:21:40.627Z,77.11
2023-04-22T19:24:06.944Z,76.79
2023-04-22T19:26:33.314Z,75.85
2023-04-22T19:28:59.693Z,75.19
2023-04-22T19:31:26.020Z,76.31
2023-04-22T19:33:52.349Z,76.27
2023-04-22T19:36:18.677Z,75.03
2023-04-22T19:38:45.104Z,75.48
2023-04-22T19:41:11.399Z,76.42
2023-04-22T19:43:37.729Z,75.52
2023-04-22T19:46:04.054Z,75.03
2023-04-22T19:48:30.365Z,73.95
2023-04-22T19:50:56.692Z,75.30
2023-04-22T19:53:23.013Z,75.33
2023-04-22T19:55:49.320Z,75.31
2023-04-22T19:58:15.687Z,74.89
2023-04-22T20:00:41.993Z,75.18
2023-04-22T20:03:08.432Z,75.32
2023-04-22T20:05:34.846Z,74.51
2023-04-22T20:08:01.150Z,74.70
2023-04-22T20:10:27.456Z,75.13
2023-04-22T20:12:53.786Z,74.43
2023-04-22T20:15:20.099Z,73.23
2023-04-22T20:17:46.397Z,72.85
2023-04-22T20:20:12.739Z,72.44
2023-04-22T20:22:39.054Z,73.72
2023-04-22T20:25:05.359Z,72.60
2023-04-22T20:27:31.773Z,73.59
2023-04-22T20:29:58.118Z,74.97
2023-04-22T20:32:24.457Z,76.48
2023-04-22T20:34:50.792Z,78.36
2023-04-22T20:37:17.106Z,78.32
2023-04-22T20:39:43.416Z,76.50
2023-04-22T20:42:09.736Z,76.97
2023-04-22T20:44:36.042Z,76.54
2023-04-22T20:47:02.354Z,76.00
2023-04-22T20:49:28.695Z,76.85
2023-04-22T20:51:55.004Z,76.93
2023-04-22T20:54:28.460Z,78.33
2023-04-22T20:56:55.501Z,76.67
2023-04-22T20:59:21.808Z,76.46
2023-04-22T21:01:48.191Z,76.08
2023-04-22T21:04:14.738Z,76.01
2023-04-22T21:06:41.145Z,75.98
2023-04-22T21:09:07.450Z,77.16
2023-04-22T21:11:33.787Z,75.31
2023-04-22T21:14:00.126Z,75.90
2023-04-22T21:16:26.439Z,75.55
2023-04-22T21:18:52.774Z,76.44
2023-04-22T21:21:19.093Z,75.75
2023-04-22T21:23:45.400Z,76.03
2023-04-22T21:26:11.731Z,76.93
2023-04-22T21:28:38.034Z,76.41
2023-04-22T21:31:04.356Z,76.45
2023-04-22T21:33:30.694Z,77.55
2023-04-22T21:35:57.004Z,76.10
2023-04-22T21:38:23.445Z,76.16
2023-04-22T21:40:49.763Z,75.77
2023-04-22T21:43:16.059Z,76.08
2023-04-22T21:45:42.373Z,76.17
2023-04-22T21:48:08.828Z,76.28
2023-04-22T21:50:35.176Z,76.35
2023-04-22T21:53:01.478Z,77.16
2023-04-22T21:55:27.866Z,77.73
2023-04-22T21:57:54.168Z,77.08
2023-04-22T22:00:20.491Z,77.14
2023-04-22T22:02:46.968Z,77.48
2023-04-22T22:05:13.391Z,77.76
2023-04-22T22:07:39.695Z,77.82
2023-04-22T22:10:06.045Z,78.39
2023-04-22T22:12:32.375Z,78.40
2023-04-22T22:14:58.672Z,77.98
2023-04-22T22:17:25.029Z,77.49
2023-04-22T22:19:51.343Z,77.87
2023-04-22T22:22:17.649Z,79.65
2023-04-22T22:24:44.363Z,79.60
2023-04-22T22:27:10.847Z,79.17
2023-04-22T22:29:37.157Z,78.79
2023-04-22T22:32:03.511Z,78.46
2023-04-22T22:34:29.873Z,80.32
2023-04-22T22:36:56.191Z,81.04
2023-04-22T22:39:22.527Z,79.79
2023-04-22T22:41:48.841Z,80.49
2023-04-22T22:44:15.155Z,80.30
2023-04-22T22:46:41.482Z,79.46
2023-04-22T22:49:07.791Z,78.94
2023-04-22T22:51:34.097Z,79.04
2023-04-22T22:54:00.414Z,80.85
2023-04-22T22:56:26.747Z,80.29
2023-04-22T22:58:53.051Z,80.44
2023-04-22T23:01:19.386Z,80.72
2023-04-22T23:03:45.863Z,80.05
2023-04-22T23:06:12.219Z,79.15
2023-04-22T23:08:38.555Z,78.79
2023-04-22T23:11:06.297Z,78.80
2023-04-22T23:13:32.591Z,78.91
2023-04-22T23:15:58.934Z,79.83
2023-04-22T23:18:25.212Z,79.38
2023-04-22T23:20:51.490Z,79.64
2023-04-22T23:23:17.803Z,79.28
2023-04-22T23:25:44.106Z,79.44
2023-04-22T23:28:10.396Z,79.45
2023-04-22T23:30:36.706Z,80.35
2023-04-22T23:33:03.050Z,80.24
2023-04-22T23:35:29.373Z,80.69
2023-04-22T23:37:55.747Z,80.63
2023-04-22T23:40:22.038Z,81.11
2023-04-22T23:42:48.360Z,80.56
2023-04-22T23:45:14.668Z,80.90
2023-04-22T23:47:40.980Z,82.38
2023-04-22T23:50:07.295Z,82.08
2023-04-22T23:52:33.599Z,81.51
2023-04-22T23:54:59.894Z,82.13
2023-04-22T23:57:26.184Z,82.75
2023-04-22T23:59:52.491Z,83.97
